Time;durP1;ratioP1;P1;durP2;ratioP2;P2;SDS_P1;SDS_P2;PMS_P1;PMS_P2;Temp;Humidity;BMP_temperature;BMP_pressure;BME280_temperature;BME280_humidity;BME280_pressure;Samples;Min_cycle;Max_cycle;Signal;HPM_P1;HPM_P2
2022/09/20 00:01:06;;;;;;;5.77;1.10;;;;;;;9.23;100.00;101115.41;5056058;28;20442;-70
2022/09/20 00:03:33;;;;;;;3.47;1.17;;;;;;;9.15;100.00;101116.81;5056023;28;20838;-71
2022/09/20 00:06:01;;;;;;;3.73;0.97;;;;;;;9.21;100.00;101118.41;5055901;28;20529;-71
2022/09/20 00:08:29;;;;;;;3.77;0.97;;;;;;;9.19;100.00;101114.34;5055650;28;20438;-71
2022/09/20 00:11:00;;;;;;;3.30;0.90;;;;;;;9.16;100.00;101118.41;5055546;28;20442;-71
2022/09/20 00:13:27;;;;;;;3.30;0.90;;;;;;;9.10;100.00;101114.13;5055844;28;20435;-68
2022/09/20 00:15:53;;;;;;;3.53;1.03;;;;;;;9.06;100.00;101123.88;5055358;28;20489;-69
2022/09/20 00:18:20;;;;;;;3.50;1.10;;;;;;;9.01;100.00;101126.59;5055645;28;20501;-71
2022/09/20 00:20:47;;;;;;;3.80;1.03;;;;;;;9.00;100.00;101111.50;5055616;28;20446;-71
2022/09/20 00:23:15;;;;;;;3.63;1.00;;;;;;;8.98;100.00;101110.94;5055641;28;20442;-71
2022/09/20 00:25:43;;;;;;;4.03;1.07;;;;;;;9.00;100.00;101120.41;5055145;28;20868;-71
2022/09/20 00:28:10;;;;;;;11.40;1.10;;;;;;;9.02;100.00;101117.41;5055641;28;20438;-71
2022/09/20 00:30:37;;;;;;;3.60;1.17;;;;;;;9.02;100.00;101120.91;5055290;28;20818;-71
2022/09/20 00:33:04;;;;;;;3.30;0.90;;;;;;;9.05;100.00;101114.97;5055509;28;20492;-71
2022/09/20 00:35:30;;;;;;;3.90;1.20;;;;;;;8.99;100.00;101117.97;5055320;28;20458;-71
2022/09/20 00:37:57;;;;;;;3.80;1.10;;;;;;;8.94;100.00;101126.09;5054964;28;20990;-71
2022/09/20 00:40:25;;;;;;;3.93;1.20;;;;;;;8.89;100.00;101121.50;5055244;28;20204;-71
2022/09/20 00:42:54;;;;;;;3.77;1.00;;;;;;;8.90;100.00;101125.84;5055219;28;20493;-71
2022/09/20 00:45:22;;;;;;;4.83;1.20;;;;;;;8.96;100.00;101123.94;5054835;28;20469;-71
2022/09/20 00:47:55;;;;;;;5.50;0.93;;;;;;;8.91;100.00;101123.97;5054859;28;20438;-71
2022/09/20 00:50:32;;;;;;;3.57;1.07;;;;;;;8.98;100.00;101127.16;5055142;28;20437;-71
2022/09/20 00:53:03;;;;;;;4.03;1.10;;;;;;;9.00;100.00;101122.28;5055105;28;20434;-71
2022/09/20 00:55:30;;;;;;;3.90;0.97;;;;;;;9.06;100.00;101124.69;5054649;28;20896;-68
2022/09/20 00:57:59;;;;;;;3.60;0.90;;;;;;;9.03;100.00;101122.56;5054842;28;20478;-68
2022/09/20 01:00:26;;;;;;;3.37;0.80;;;;;;;9.00;100.00;101117.69;5054884;28;20443;-68
2022/09/20 01:02:58;;;;;;;3.60;0.90;;;;;;;8.99;100.00;101124.19;5054862;28;20449;-69
2022/09/20 01:05:26;;;;;;;3.50;0.90;;;;;;;8.97;100.00;101128.25;5054752;28;20466;-71
2022/09/20 01:07:53;;;;;;;3.53;0.93;;;;;;;8.88;100.00;101129.91;5054724;28;20504;-68
2022/09/20 01:10:19;;;;;;;4.53;1.47;;;;;;;8.83;100.00;101126.13;5054623;28;20449;-69
2022/09/20 01:12:47;;;;;;;3.47;0.87;;;;;;;8.83;100.00;101130.72;5054584;28;20492;-69
2022/09/20 01:15:15;;;;;;;3.20;0.60;;;;;;;8.73;100.00;101128.88;5054513;28;20467;-71
2022/09/20 01:17:46;;;;;;;3.40;0.80;;;;;;;8.65;100.00;101124.03;5054460;28;20505;-71
2022/09/20 01:20:18;;;;;;;4.80;1.40;;;;;;;8.61;100.00;101128.38;5054214;28;21039;-71
2022/09/20 01:22:56;;;;;;;3.27;0.80;;;;;;;8.58;100.00;101131.59;5054504;28;20430;-71
2022/09/20 01:25:41;;;;;;;3.53;0.90;;;;;;;8.43;100.00;101118.97;5054408;28;20853;-71
2022/09/20 01:28:09;;;;;;;3.83;1.33;;;;;;;8.37;100.00;101120.06;5054373;28;20430;-71
2022/09/20 01:30:41;;;;;;;3.10;0.70;;;;;;;8.38;100.00;101118.97;5053935;28;20954;-71
2022/09/20 01:33:15;;;;;;;3.43;0.83;;;;;;;8.37;100.00;101128.16;5054023;28;20855;-71
2022/09/20 01:35:45;;;;;;;3.83;1.07;;;;;;;8.40;100.00;101118.69;5054121;28;20469;-71
2022/09/20 01:38:23;;;;;;;3.60;0.90;;;;;;;8.35;100.00;101125.69;5054134;28;20482;-69
2022/09/20 01:41:03;;;;;;;3.43;0.90;;;;;;;8.38;100.00;101135.16;5054159;28;20821;-69
2022/09/20 01:43:36;;;;;;;4.03;1.00;;;;;;;8.42;100.00;101132.75;5054058;28;20441;-71
2022/09/20 01:46:14;;;;;;;3.30;0.80;;;;;;;8.43;100.00;101121.66;5053960;28;20473;-72
2022/09/20 01:48:42;;;;;;;3.53;1.10;;;;;;;8.45;100.00;101134.88;5053990;28;20429;-69
2022/09/20 01:51:28;;;;;;;3.63;0.97;;;;;;;8.51;100.00;101136.50;5053900;28;20450;-69
2022/09/20 01:54:20;;;;;;;3.60;0.90;;;;;;;8.47;100.00;101141.63;5053897;28;20437;-71
2022/09/20 01:57:22;;;;;;;5.03;1.10;;;;;;;8.49;100.00;101138.66;5052839;28;20456;-69
2022/09/20 02:00:03;;;;;;;3.20;0.60;;;;;;;8.48;100.00;101134.34;5040669;28;20962;-71
2022/09/20 02:03:12;;;;;;;4.90;1.10;;;;;;;8.53;100.00;101145.94;5053529;28;20422;-71
2022/09/20 02:06:04;;;;;;;7.17;1.13;;;;;;;8.50;100.00;101143.78;5081328;22;20478;-66
2022/09/20 02:08:54;;;;;;;4.17;0.90;;;;;;;8.52;100.00;101143.50;5073699;28;20421;-68
2022/09/20 02:11:23;;;;;;;3.53;0.90;;;;;;;8.56;100.00;101144.59;5073622;28;20422;-69
2022/09/20 02:14:04;;;;;;;4.00;0.90;;;;;;;8.55;100.00;101148.38;5073573;28;20441;-69
2022/09/20 02:16:51;;;;;;;4.07;1.30;;;;;;;8.50;100.00;101141.09;5073537;28;20893;-67
2022/09/20 02:19:39;;;;;;;3.57;0.80;;;;;;;8.64;100.00;101152.13;5073487;28;20474;-69
2022/09/20 02:22:22;;;;;;;3.40;0.80;;;;;;;8.64;100.00;101149.44;5073568;28;20482;-69
2022/09/20 02:24:58;;;;;;;4.80;1.00;;;;;;;8.67;100.00;101154.25;5073501;28;20429;-69
2022/09/20 02:27:30;;;;;;;7.07;0.70;;;;;;;8.75;100.00;101148.31;5073386;28;20457;-69
2022/09/20 02:30:09;;;;;;;3.00;0.70;;;;;;;8.73;100.00;101155.09;5073401;28;20422;-70
2022/09/20 02:33:01;;;;;;;3.50;0.87;;;;;;;8.91;100.00;101150.97;5073434;28;20501;-69
2022/09/20 02:35:39;;;;;;;4.50;0.90;;;;;;;8.98;100.00;101156.88;5030985;28;20443;-68
2022/09/20 02:38:18;;;;;;;3.77;0.87;;;;;;;9.02;100.00;101155.25;5031002;28;20474;-69
2022/09/20 02:41:00;;;;;;;4.00;1.20;;;;;;;9.05;100.00;101152.78;5031272;28;20438;-69
2022/09/20 02:43:34;;;;;;;3.57;0.90;;;;;;;9.08;100.00;101152.25;5030972;28;20424;-69
2022/09/20 02:46:07;;;;;;;4.33;0.90;;;;;;;9.16;100.00;101152.75;5030915;28;20521;-69
2022/09/20 02:48:42;;;;;;;3.60;0.90;;;;;;;9.26;100.00;101153.53;5030953;28;20471;-69
2022/09/20 02:51:17;;;;;;;3.73;0.93;;;;;;;9.31;100.00;101158.09;5030966;28;20451;-69
2022/09/20 02:53:51;;;;;;;3.60;1.13;;;;;;;9.31;100.00;101156.19;5030889;28;20878;-69
2022/09/20 02:56:26;;;;;;;3.10;0.80;;;;;;;9.34;100.00;101165.63;5030730;28;20465;-69
2022/09/20 02:59:01;;;;;;;3.73;1.10;;;;;;;9.31;100.00;101169.72;5030766;28;20524;-69
2022/09/20 03:01:39;;;;;;;3.30;0.90;;;;;;;9.42;100.00;101161.53;5030791;28;20508;-68
2022/09/20 03:04:21;;;;;;;3.10;0.70;;;;;;;9.47;100.00;101172.31;5031086;28;20431;-70
2022/09/20 03:06:55;;;;;;;5.30;1.07;;;;;;;9.45;100.00;101161.78;5056332;28;20831;-67
2022/09/20 03:09:30;;;;;;;3.13;0.83;;;;;;;9.45;100.00;101169.09;5076752;28;20804;-68
2022/09/20 03:12:06;;;;;;;3.07;0.60;;;;;;;9.44;100.00;101170.19;5076631;28;20865;-68
2022/09/20 03:14:37;;;;;;;3.73;1.13;;;;;;;9.44;100.00;101162.88;5076875;28;20460;-67
2022/09/20 03:17:16;;;;;;;3.40;0.77;;;;;;;9.45;100.00;101171.81;5076799;28;20495;-68
2022/09/20 03:19:58;;;;;;;3.30;0.87;;;;;;;9.43;100.00;101176.66;5076816;28;20534;-69
2022/09/20 03:22:37;;;;;;;4.17;1.03;;;;;;;9.44;100.00;101181.81;5076816;28;20421;-68
2022/09/20 03:25:33;;;;;;;3.20;0.60;;;;;;;9.43;100.00;101182.91;5076766;28;20425;-68
2022/09/20 03:28:08;;;;;;;3.20;0.80;;;;;;;9.45;100.00;101188.03;5076497;28;21158;-68
2022/09/20 03:30:47;;;;;;;4.10;1.33;;;;;;;9.45;100.00;101178.03;5076621;28;20426;-67
2022/09/20 03:33:24;;;;;;;3.30;0.90;;;;;;;9.48;100.00;101190.19;5076549;28;20516;-68
2022/09/20 03:36:07;;;;;;;3.33;0.57;;;;;;;9.46;100.00;101186.94;5076176;28;20986;-68
2022/09/20 03:38:54;;;;;;;3.93;1.33;;;;;;;9.52;100.00;101192.06;5076418;28;20556;-69
2022/09/20 03:41:50;;;;;;;3.00;0.70;;;;;;;9.52;100.00;101183.13;5076454;28;20479;-68
2022/09/20 03:44:36;;;;;;;3.10;0.63;;;;;;;9.51;100.00;101189.59;5076430;28;20444;-68
2022/09/20 03:47:12;;;;;;;4.03;1.10;;;;;;;9.59;100.00;101183.63;5076316;28;20469;-68
2022/09/20 03:50:04;;;;;;;4.90;1.00;;;;;;;9.57;100.00;101189.31;5076360;28;20471;-70
2022/09/20 03:53:03;;;;;;;3.13;0.83;;;;;;;9.55;100.00;101188.78;5076232;28;20479;-67
2022/09/20 03:56:09;;;;;;;4.07;1.00;;;;;;;9.65;100.00;101195.22;5076094;28;20421;-68
2022/09/20 03:58:49;;;;;;;3.80;1.27;;;;;;;9.66;100.00;101191.44;5076211;28;20552;-69
2022/09/20 04:01:35;;;;;;;4.10;0.97;;;;;;;9.67;100.00;101195.75;5076094;28;20429;-69
2022/09/20 04:04:11;;;;;;;3.37;0.90;;;;;;;9.69;100.00;101197.06;5075722;28;20421;-68
2022/09/20 04:07:01;;;;;;;3.10;0.70;;;;;;;9.72;100.00;101199.22;5075710;28;20473;-69
2022/09/20 04:10:01;;;;;;;3.30;0.80;;;;;;;9.66;100.00;101194.16;5075742;28;20921;-69
2022/09/20 04:12:38;;;;;;;3.23;0.80;;;;;;;9.65;100.00;101198.75;5075719;28;20979;-69
2022/09/20 04:15:20;;;;;;;3.33;0.87;;;;;;;9.67;100.00;101201.97;5075911;28;20425;-68
2022/09/20 04:17:56;;;;;;;3.50;1.00;;;;;;;9.65;100.00;101204.16;5075935;28;20458;-68
2022/09/20 04:20:31;;;;;;;4.07;1.17;;;;;;;9.66;100.00;101205.78;5074732;28;20429;-68
2022/09/20 04:23:02;;;;;;;3.40;0.90;;;;;;;9.66;100.00;101203.06;5075781;28;20426;-69
2022/09/20 04:25:36;;;;;;;3.73;0.83;;;;;;;9.65;100.00;101201.44;5075263;28;20906;-69
2022/09/20 04:28:10;;;;;;;3.30;0.83;;;;;;;9.63;100.00;101200.09;5075439;28;20418;-69
2022/09/20 04:30:42;;;;;;;3.67;0.90;;;;;;;9.63;100.00;101200.91;5075483;28;20433;-68
2022/09/20 04:33:19;;;;;;;7.73;1.23;;;;;;;9.60;100.00;101196.84;5075382;28;20467;-68
2022/09/20 04:38:40;;;;;;;10.00;1.00;;;;;;;9.56;100.00;101211.22;5074761;28;20460;-69
2022/09/20 04:41:33;;;;;;;3.73;1.20;;;;;;;9.51;100.00;101209.34;5074714;28;20449;-69
2022/09/20 04:44:21;;;;;;;3.97;1.00;;;;;;;9.49;100.00;101210.72;5075243;28;20464;-69
2022/09/20 04:47:35;;;;;;;7.37;1.70;;;;;;;9.51;100.00;101211.25;5075124;28;20475;-69
2022/09/20 04:50:22;;;;;;;3.30;0.87;;;;;;;9.44;100.00;101213.47;5075345;28;20429;-68
2022/09/20 04:53:15;;;;;;;4.27;1.20;;;;;;;9.49;100.00;101210.72;5075128;28;20418;-69
2022/09/20 04:55:50;;;;;;;4.53;1.83;;;;;;;9.52;100.00;101213.69;5075007;28;20526;-69
2022/09/20 04:58:37;;;;;;;4.90;1.77;;;;;;;9.51;100.00;101219.34;5075018;28;20469;-68
2022/09/20 05:01:55;;;;;;;4.53;1.37;;;;;;;9.50;100.00;101218.56;5074962;28;20433;-69
2022/09/20 05:05:15;;;;;;;4.30;1.47;;;;;;;9.48;100.00;101226.16;5075030;28;20430;-69
2022/09/20 05:08:09;;;;;;;3.70;1.20;;;;;;;9.46;100.00;101217.50;5012594;28;20463;-69
2022/09/20 05:11:10;;;;;;;10.10;1.33;;;;;;;9.43;100.00;101226.19;5074828;28;20418;-69
2022/09/20 05:13:57;;;;;;;5.07;1.97;;;;;;;9.45;100.00;101229.41;5074742;28;20493;-67
2022/09/20 05:16:34;;;;;;;4.37;1.53;;;;;;;9.44;100.00;101232.38;5074657;28;20834;-67
2022/09/20 05:19:13;;;;;;;3.50;1.03;;;;;;;9.50;100.00;101239.38;5074227;28;20914;-69
2022/09/20 05:21:53;;;;;;;4.37;1.53;;;;;;;9.47;100.00;101237.22;5074599;28;20436;-68
2022/09/20 05:24:31;;;;;;;5.93;1.70;;;;;;;9.49;100.00;101237.78;5074217;28;20803;-69
2022/09/20 05:27:18;;;;;;;3.53;1.10;;;;;;;9.51;100.00;101247.19;5074022;28;20465;-68
2022/09/20 05:29:52;;;;;;;4.10;1.27;;;;;;;9.53;100.00;101249.66;5074363;28;20433;-69
2022/09/20 05:32:25;;;;;;;3.90;1.50;;;;;;;9.60;100.00;101258.25;5073612;28;20426;-69
2022/09/20 05:35:00;;;;;;;3.67;1.20;;;;;;;9.58;100.00;101263.16;5074297;28;20430;-69
2022/09/20 05:37:43;;;;;;;4.00;1.03;;;;;;;9.65;100.00;101266.38;5073852;28;20973;-69
2022/09/20 05:40:18;;;;;;;4.20;1.33;;;;;;;9.59;100.00;101264.75;5073844;28;20831;-68
2022/09/20 05:42:55;;;;;;;3.83;1.40;;;;;;;9.64;100.00;101264.72;5074171;28;20432;-69
2022/09/20 05:45:47;;;;;;;3.57;0.97;;;;;;;9.72;100.00;101269.56;5073571;28;20905;-69
2022/09/20 05:48:18;;;;;;;4.33;1.23;;;;;;;9.79;100.00;101272.78;5074046;28;20430;-68
2022/09/20 05:50:52;;;;;;;5.67;1.60;;;;;;;9.87;100.00;101276.78;5074117;28;20477;-69
2022/09/20 05:54:07;;;;;;;3.40;1.13;;;;;;;9.92;100.00;101276.78;5073674;28;20853;-68
2022/09/20 05:56:46;;;;;;;4.20;1.37;;;;;;;9.93;100.00;101280.28;5011876;28;20472;-69
2022/09/20 05:59:25;;;;;;;3.30;1.13;;;;;;;9.91;100.00;101282.44;5072039;28;20491;-69
2022/09/20 06:02:10;;;;;;;3.30;1.00;;;;;;;9.94;100.00;101284.59;5073770;28;20437;-67
2022/09/20 06:04:43;;;;;;;5.00;1.30;;;;;;;10.00;100.00;101287.00;5073811;28;20464;-68
2022/09/20 06:07:20;;;;;;;3.87;1.00;;;;;;;10.05;100.00;101288.88;5073285;28;20481;-68
2022/09/20 06:10:14;;;;;;;6.53;1.97;;;;;;;10.03;100.00;101293.75;5073747;28;20835;-71
2022/09/20 06:12:51;;;;;;;7.10;1.40;;;;;;;9.98;100.00;101282.97;5073279;28;20950;-70
2022/09/20 06:15:26;;;;;;;18.43;3.10;;;;;;;10.03;100.00;101296.47;5073491;28;20448;-71
2022/09/20 06:18:02;;;;;;;7.93;2.80;;;;;;;10.04;100.00;101298.88;5073559;28;20425;-70
2022/09/20 06:20:35;;;;;;;8.40;2.47;;;;;;;10.02;100.00;101297.56;5073282;28;20583;-70
2022/09/20 06:23:05;;;;;;;3.90;1.10;;;;;;;9.98;100.00;101301.91;5073515;28;20436;-69
2022/09/20 06:25:41;;;;;;;4.07;1.43;;;;;;;10.03;100.00;101304.56;5073352;28;20438;-69
2022/09/20 06:28:13;;;;;;;4.43;1.50;;;;;;;9.98;100.00;101310.03;5073479;28;20425;-69
2022/09/20 06:30:44;;;;;;;5.30;1.60;;;;;;;9.97;100.00;101309.22;5073448;28;20539;-70
2022/09/20 06:33:16;;;;;;;3.60;1.30;;;;;;;9.97;100.00;101320.03;5073315;28;20453;-69
2022/09/20 06:35:48;;;;;;;4.23;1.60;;;;;;;9.93;100.00;101315.47;5073544;28;20468;-69
2022/09/20 06:41:29;;;;;;;5.50;1.80;;;;;;;9.93;100.00;101316.28;5073424;28;20454;-70
2022/09/20 06:43:57;;;;;;;3.77;1.27;;;;;;;9.95;100.00;101321.41;5072936;28;20903;-70
2022/09/20 06:46:24;;;;;;;5.30;1.70;;;;;;;9.95;100.00;101322.19;5073215;28;20464;-70
2022/09/20 06:48:52;;;;;;;4.70;1.67;;;;;;;9.92;100.00;101321.97;5072832;28;20445;-70
2022/09/20 06:51:18;;;;;;;4.57;1.40;;;;;;;9.91;100.00;101320.34;5073139;28;20445;-69
2022/09/20 06:53:45;;;;;;;3.10;0.97;;;;;;;9.89;100.00;101319.81;5073028;28;20441;-70
2022/09/20 06:56:16;;;;;;;4.33;1.50;;;;;;;9.82;100.00;101318.19;5073073;28;20462;-70
2022/09/20 06:58:42;;;;;;;4.07;1.30;;;;;;;9.81;100.00;101321.19;5072987;28;20418;-68
2022/09/20 07:01:09;;;;;;;4.33;1.10;;;;;;;9.82;100.00;101320.91;5072957;28;20506;-69
2022/09/20 07:03:36;;;;;;;3.90;1.40;;;;;;;9.86;100.00;101324.69;5073048;28;20449;-69
2022/09/20 07:06:05;;;;;;;4.23;1.60;;;;;;;9.86;100.00;101330.09;5072707;28;20477;-70
2022/09/20 07:08:31;;;;;;;5.10;2.10;;;;;;;9.95;100.00;101332.22;5072731;28;20883;-69
2022/09/20 07:11:03;;;;;;;5.10;1.13;;;;;;;9.97;100.00;101336.28;5072890;28;20445;-70
2022/09/20 07:13:29;;;;;;;8.07;1.90;;;;;;;10.09;100.00;101339.47;5072941;28;20430;-69
2022/09/20 07:16:00;;;;;;;6.30;1.70;;;;;;;10.14;100.00;101351.34;5073067;28;20538;-69
2022/09/20 07:18:26;;;;;;;4.60;1.70;;;;;;;10.19;100.00;101343.22;5072848;28;20441;-69
2022/09/20 07:20:53;;;;;;;5.17;1.73;;;;;;;10.29;100.00;101349.41;5072640;28;20886;-68
2022/09/20 07:23:21;;;;;;;5.27;2.10;;;;;;;10.38;100.00;101352.31;5073060;28;20473;-68
2022/09/20 07:25:47;;;;;;;4.90;1.80;;;;;;;10.45;100.00;101354.72;5072502;28;20453;-68
2022/09/20 07:28:13;;;;;;;4.50;1.83;;;;;;;10.49;100.00;101356.59;5072490;28;20441;-69
2022/09/20 07:30:40;;;;;;;4.87;1.87;;;;;;;10.49;100.00;101364.72;5072852;28;20444;-69
2022/09/20 07:33:08;;;;;;;4.57;1.30;;;;;;;10.53;100.00;101362.25;5072829;28;20449;-69
2022/09/20 07:35:35;;;;;;;4.90;1.73;;;;;;;10.55;100.00;101358.16;5072782;28;20480;-69
2022/09/20 07:38:01;;;;;;;4.13;1.77;;;;;;;10.57;100.00;101360.59;5072415;28;20449;-69
2022/09/20 07:40:30;;;;;;;4.67;1.63;;;;;;;10.65;100.00;101356.47;5072666;28;20508;-69
2022/09/20 07:42:57;;;;;;;5.70;1.80;;;;;;;10.63;100.00;101359.47;5072813;28;20445;-68
2022/09/20 07:45:24;;;;;;;5.97;2.03;;;;;;;10.71;100.00;101366.97;5072381;28;20969;-68
2022/09/20 07:47:52;;;;;;;13.87;2.17;;;;;;;10.79;100.00;101369.09;5072764;28;20449;-69
2022/09/20 07:50:18;;;;;;;5.37;2.17;;;;;;;10.93;100.00;101373.88;5072669;28;20441;-69
2022/09/20 07:52:45;;;;;;;4.40;1.97;;;;;;;11.08;100.00;101379.16;5072598;28;20817;-69
2022/09/20 07:55:11;;;;;;;8.50;2.03;;;;;;;11.21;100.00;101389.34;5074609;28;20995;-70
2022/09/20 07:57:39;;;;;;;4.60;1.70;;;;;;;11.29;100.00;101383.31;5076055;28;20536;-69
2022/09/20 08:00:08;;;;;;;5.13;1.70;;;;;;;11.35;100.00;101376.75;5076050;28;20481;-70
2022/09/20 08:02:35;;;;;;;5.20;1.97;;;;;;;11.40;100.00;101388.63;5076031;28;20843;-68
2022/09/20 08:05:03;;;;;;;9.77;2.10;;;;;;;11.50;100.00;101391.25;5075975;28;20445;-70
2022/09/20 08:07:30;;;;;;;6.13;1.63;;;;;;;11.63;100.00;101394.06;5075573;28;20472;-69
2022/09/20 08:09:56;;;;;;;6.13;1.50;;;;;;;11.70;100.00;101388.31;5075800;28;20999;-70
2022/09/20 08:12:23;;;;;;;5.37;2.23;;;;;;;11.72;100.00;101394.25;5075872;28;20441;-69
2022/09/20 08:14:51;;;;;;;4.40;1.50;;;;;;;11.85;100.00;101392.78;5075855;28;20441;-70
2022/09/20 08:17:18;;;;;;;5.63;2.37;;;;;;;12.02;100.00;101393.13;5075503;28;20993;-69
2022/09/20 08:19:45;;;;;;;16.93;2.10;;;;;;;12.31;100.00;101394.94;5075676;28;20525;-70
2022/09/20 08:22:11;;;;;;;5.43;2.20;;;;;;;12.41;100.00;101400.22;5076812;28;20512;-69
2022/09/20 08:24:38;;;;;;;10.83;2.70;;;;;;;12.52;100.00;101398.16;5075623;28;21000;-69
2022/09/20 08:27:05;;;;;;;6.13;1.47;;;;;;;12.59;100.00;101404.84;5075585;28;20461;-70
2022/09/20 08:29:31;;;;;;;5.57;2.30;;;;;;;12.70;100.00;101404.69;5076878;28;20450;-69
2022/09/20 08:32:00;;;;;;;7.17;1.80;;;;;;;12.84;100.00;101411.81;5075624;28;20476;-71
2022/09/20 08:34:27;;;;;;;6.00;2.27;;;;;;;12.84;100.00;101406.38;5075556;28;20448;-71
2022/09/20 08:36:55;;;;;;;5.50;2.50;;;;;;;12.94;100.00;101405.41;5075430;28;20469;-71
2022/09/20 08:39:22;;;;;;;14.43;2.10;;;;;;;13.10;100.00;101414.09;5075474;28;20445;-69
2022/09/20 08:41:55;;;;;;;11.37;2.50;;;;;;;13.17;100.00;101411.03;5075414;28;20441;-69
2022/09/20 08:44:26;;;;;;;5.40;2.30;;;;;;;13.09;100.00;101407.06;5075360;28;20429;-70
2022/09/20 08:47:04;;;;;;;5.10;2.50;;;;;;;13.10;99.93;101420.38;5075229;28;20464;-69
2022/09/20 08:49:31;;;;;;;13.27;2.40;;;;;;;13.08;100.00;101417.13;5075241;28;20529;-68
2022/09/20 08:51:58;;;;;;;4.90;2.27;;;;;;;13.04;100.00;101415.31;5075083;28;20445;-69
2022/09/20 08:54:26;;;;;;;5.27;2.43;;;;;;;13.08;100.00;101421.78;5075095;28;20498;-69
2022/09/20 08:56:53;;;;;;;5.63;2.30;;;;;;;13.05;100.00;101414.19;5075043;28;20461;-69
2022/09/20 08:59:24;;;;;;;4.07;1.80;;;;;;;13.19;99.82;101415.03;5074965;28;20468;-69
2022/09/20 09:01:53;;;;;;;4.70;2.10;;;;;;;13.26;99.05;101418.22;5074759;28;20479;-69
2022/09/20 09:04:22;;;;;;;4.20;1.60;;;;;;;13.31;99.18;101420.06;5075008;28;20475;-69
2022/09/20 09:06:51;;;;;;;6.83;2.50;;;;;;;13.38;99.72;101420.47;5074208;28;21016;-69
2022/09/20 09:09:21;;;;;;;9.50;3.20;;;;;;;13.43;99.96;101420.38;5074697;28;20548;-69
2022/09/20 09:11:49;;;;;;;8.07;3.20;;;;;;;13.57;99.31;101428.56;5074787;28;20429;-69
2022/09/20 09:17:10;;;;;;;5.03;2.10;;;;;;;13.55;96.96;101428.09;5074389;28;20924;-69
2022/09/20 09:19:46;;;;;;;5.27;1.93;;;;;;;13.64;97.23;101429.00;5074493;28;20445;-69
2022/09/20 09:22:19;;;;;;;9.03;3.27;;;;;;;13.62;95.51;101432.00;5074232;28;20513;-69
2022/09/20 09:24:46;;;;;;;6.40;2.23;;;;;;;13.62;95.99;101433.91;5074551;28;20437;-69
2022/09/20 09:27:16;;;;;;;5.53;1.90;;;;;;;13.74;97.00;101433.44;5074339;28;20461;-70
2022/09/20 09:29:50;;;;;;;7.10;2.93;;;;;;;13.91;95.50;101438.28;5074231;28;20430;-70
2022/09/20 09:32:23;;;;;;;5.17;2.50;;;;;;;13.85;95.26;101441.09;5074456;28;20527;-69
2022/09/20 09:34:51;;;;;;;7.53;2.73;;;;;;;13.96;95.23;101440.91;5074394;28;20441;-69
2022/09/20 09:37:29;;;;;;;7.30;2.97;;;;;;;13.99;95.56;101438.41;5074240;28;20457;-69
2022/09/20 09:40:15;;;;;;;4.90;2.33;;;;;;;14.03;94.12;101441.31;5074119;28;20512;-69
2022/09/20 09:42:49;;;;;;;5.00;2.03;;;;;;;14.00;93.69;101433.75;5074204;28;20433;-69
2022/09/20 09:45:26;;;;;;;5.40;1.93;;;;;;;14.02;95.78;101435.06;5073888;28;20457;-69
2022/09/20 09:47:54;;;;;;;6.20;2.03;;;;;;;14.09;95.25;101440.09;5073763;28;20417;-70
2022/09/20 09:50:24;;;;;;;8.10;2.90;;;;;;;14.26;93.00;101444.94;5073684;28;20437;-69
2022/09/20 09:52:59;;;;;;;6.80;2.23;;;;;;;14.53;93.48;101449.56;5074063;28;20430;-69
2022/09/20 09:55:37;;;;;;;7.03;2.30;;;;;;;14.63;92.34;101443.88;5073504;28;20986;-70
2022/09/20 09:58:11;;;;;;;5.60;2.30;;;;;;;14.77;93.04;101439.19;5073966;28;20500;-70
2022/09/20 10:00:44;;;;;;;4.90;2.13;;;;;;;14.91;90.17;101439.13;5073836;28;20469;-69
2022/09/20 10:03:33;;;;;;;5.80;2.80;;;;;;;14.97;87.98;101439.84;5073839;28;20441;-69
2022/09/20 10:06:10;;;;;;;5.10;2.20;;;;;;;14.96;88.24;101438.22;5073498;28;20473;-70
2022/09/20 10:08:48;;;;;;;4.10;1.77;;;;;;;15.01;90.29;101438.13;5073635;28;20437;-69
2022/09/20 10:11:28;;;;;;;5.50;2.63;;;;;;;14.58;89.25;101436.63;5073671;28;20425;-69
2022/09/20 10:14:05;;;;;;;5.70;1.93;;;;;;;14.55;89.57;101437.22;5073797;28;20823;-69
2022/09/20 10:16:46;;;;;;;6.60;1.93;;;;;;;14.47;90.09;101432.47;5073038;28;20470;-68
2022/09/20 10:19:23;;;;;;;5.30;2.37;;;;;;;14.57;88.98;101436.94;5074021;28;20437;-70
2022/09/20 10:22:00;;;;;;;4.30;1.43;;;;;;;14.56;89.76;101438.03;5073454;28;20490;-70
2022/09/20 10:24:38;;;;;;;5.90;2.03;;;;;;;14.69;91.74;101437.19;5073537;28;20520;-68
2022/09/20 10:27:16;;;;;;;9.03;3.13;;;;;;;14.93;89.82;101441.56;5073197;28;20957;-69
2022/09/20 10:29:56;;;;;;;6.20;2.27;;;;;;;15.04;88.51;101448.38;5073500;28;20421;-70
2022/09/20 10:32:36;;;;;;;5.30;2.13;;;;;;;15.05;87.02;101448.09;5073513;28;20528;-70
2022/09/20 10:35:22;;;;;;;6.87;1.80;;;;;;;14.80;86.15;101454.94;5073266;28;20925;-68
2022/09/20 10:38:06;;;;;;;4.53;1.67;;;;;;;14.69;86.97;101452.75;5073420;28;20429;-69
2022/09/20 10:43:34;;;;;;;4.07;1.60;;;;;;;14.80;88.30;101454.16;5072645;28;20414;-69
2022/09/20 10:46:11;;;;;;;4.33;1.70;;;;;;;15.13;87.68;101458.25;5073038;28;20976;-69
2022/09/20 10:48:42;;;;;;;4.70;2.03;;;;;;;15.48;83.92;101452.22;5073299;28;20487;-69
2022/09/20 10:51:18;;;;;;;4.43;1.97;;;;;;;15.71;84.80;101455.72;5073258;28;20434;-68
2022/09/20 10:53:52;;;;;;;6.70;1.40;;;;;;;15.74;83.68;101455.91;5073187;28;20421;-69
2022/09/20 10:56:26;;;;;;;3.90;1.57;;;;;;;15.80;83.69;101460.09;5073051;28;20564;-68
2022/09/20 10:59:16;;;;;;;4.67;1.50;;;;;;;15.73;83.21;101450.78;5073078;28;20499;-70
2022/09/20 11:01:54;;;;;;;4.33;1.40;;;;;;;15.72;83.03;101458.16;5073040;28;20468;-69
2022/09/20 11:04:37;;;;;;;4.73;1.33;;;;;;;15.87;81.79;101463.19;5073036;28;20421;-68
2022/09/20 11:07:11;;;;;;;4.30;1.47;;;;;;;15.85;82.01;101470.91;5072453;28;21072;-67
2022/09/20 11:09:42;;;;;;;8.40;1.20;;;;;;;15.57;82.14;101466.72;5072752;28;20854;-67
2022/09/20 11:12:15;;;;;;;5.87;1.90;;;;;;;15.30;84.21;101490.31;5073132;28;20421;-66
2022/09/20 11:14:47;;;;;;;4.23;1.40;;;;;;;14.88;85.16;101478.78;5073001;28;20433;-66
2022/09/20 11:17:19;;;;;;;4.13;1.40;;;;;;;14.55;88.58;101463.69;5073038;28;20504;-66
2022/09/20 11:19:55;;;;;;;4.53;1.40;;;;;;;14.36;91.28;101471.97;5072897;28;20483;-66
2022/09/20 11:22:27;;;;;;;4.37;1.30;;;;;;;14.08;93.69;101469.28;5073011;28;20421;-66
2022/09/20 11:25:01;;;;;;;5.20;1.30;;;;;;;13.92;96.14;101469.88;5072943;28;20492;-66
2022/09/20 11:27:32;;;;;;;5.77;2.03;;;;;;;13.89;97.85;101466.63;5072865;28;20464;-65
2022/09/20 11:30:03;;;;;;;6.33;2.10;;;;;;;13.86;95.75;101469.97;5074843;28;20418;-66
2022/09/20 11:32:35;;;;;;;4.90;1.80;;;;;;;13.80;96.86;101471.16;5076694;28;20441;-67
2022/09/20 11:35:14;;;;;;;6.03;1.30;;;;;;;13.91;95.59;101476.44;5076676;28;20425;-66
2022/09/20 11:37:46;;;;;;;4.70;1.80;;;;;;;13.93;95.33;101477.72;5076544;28;20985;-66
2022/09/20 11:40:22;;;;;;;5.00;1.70;;;;;;;13.86;95.40;101475.41;5076491;28;20433;-67
2022/09/20 11:42:51;;;;;;;5.30;1.37;;;;;;;13.87;94.86;101466.13;5076288;28;20829;-70
2022/09/20 11:45:18;;;;;;;4.70;1.77;;;;;;;13.89;95.24;101474.78;5076388;28;20445;-67
2022/09/20 11:47:48;;;;;;;4.80;1.83;;;;;;;13.92;95.14;101481.56;5076406;28;20441;-67
2022/09/20 11:51:00;;;;;;;4.10;1.53;;;;;;;14.13;92.74;101471.88;5076015;28;21011;-67
2022/09/20 11:53:43;;;;;;;3.90;1.60;;;;;;;14.36;92.89;101471.97;5014259;28;20435;-67
2022/09/20 11:56:19;;;;;;;4.60;1.70;;;;;;;14.51;92.03;101473.59;5014758;28;20486;-68
2022/09/20 11:58:47;;;;;;;4.80;1.80;;;;;;;14.77;91.08;101480.09;5014434;28;20806;-69
2022/09/20 12:01:24;;;;;;;4.67;1.50;;;;;;;14.62;91.80;101486.72;5014162;28;21034;-69
2022/09/20 12:03:54;;;;;;;4.40;1.27;;;;;;;14.32;94.23;101484.59;5013382;28;20434;-67
2022/09/20 12:06:27;;;;;;;5.20;1.30;;;;;;;14.01;96.87;101473.50;5013734;28;20530;-69
2022/09/20 12:08:58;;;;;;;4.00;1.17;;;;;;;13.78;98.78;101472.56;5013935;28;20429;-68
2022/09/20 12:11:32;;;;;;;3.77;1.13;;;;;;;13.65;99.66;101471.44;5014298;28;20945;-69
2022/09/20 12:14:03;;;;;;;4.67;1.50;;;;;;;13.55;100.00;101479.81;5013950;28;20855;-69